createdAt,value
2022-10-18T00:02:09.168Z,100720.03
2022-10-18T00:04:57.109Z,100715.66
2022-10-18T00:07:45.147Z,100716.84
2022-10-18T00:10:34.387Z,100715.66
2022-10-18T00:13:22.928Z,100712.50
2022-10-18T00:16:13.165Z,100705.75
2022-10-18T00:19:01.085Z,100701.38
2022-10-18T00:21:51.003Z,100706.97
2022-10-18T00:24:38.946Z,100630.50
2022-10-18T00:27:30.108Z,100704.13
2022-10-18T00:30:18.230Z,100704.50
2022-10-18T00:33:06.126Z,100717.94
2022-10-18T00:35:54.019Z,100717.84
2022-10-18T00:38:42.176Z,100711.50
2022-10-18T00:41:32.377Z,100706.75
2022-10-18T00:44:57.692Z,100715.13
2022-10-18T00:47:51.785Z,100700.00
2022-10-18T00:50:41.210Z,100694.84
2022-10-18T00:53:29.132Z,100692.91
2022-10-18T00:56:17.985Z,100690.09
2022-10-18T00:59:05.924Z,100686.50
2022-10-18T01:01:53.939Z,100682.03
2022-10-18T01:04:43.354Z,100683.56
2022-10-18T01:08:23.204Z,100676.28
2022-10-18T01:11:35.390Z,100672.13
2022-10-18T01:14:38.290Z,100680.66
2022-10-18T01:17:35.128Z,100675.25
2022-10-18T01:20:53.635Z,100668.31
2022-10-18T01:24:05.071Z,100663.38
2022-10-18T01:27:09.931Z,100659.44
2022-10-18T01:30:23.365Z,100670.53
2022-10-18T01:33:18.313Z,100676.13
2022-10-18T01:36:15.139Z,100668.94
2022-10-18T01:39:08.987Z,100667.44
2022-10-18T01:41:59.381Z,100660.50
2022-10-18T01:44:49.105Z,100661.13
2022-10-18T01:47:39.139Z,100650.44
2022-10-18T01:50:31.828Z,100660.13
2022-10-18T01:53:24.802Z,100658.97
2022-10-18T01:56:21.577Z,100667.34
2022-10-18T01:59:31.378Z,100670.53
2022-10-18T02:02:31.448Z,100661.06
2022-10-18T02:05:28.932Z,100652.31
2022-10-18T02:08:27.109Z,100657.03
2022-10-18T02:11:16.611Z,100655.47
2022-10-18T02:14:08.041Z,100654.28
2022-10-18T02:16:57.993Z,100649.53
2022-10-18T02:19:51.035Z,100651.56
2022-10-18T02:22:42.558Z,100645.97
2022-10-18T02:25:34.752Z,100632.00
2022-10-18T02:31:21.705Z,100633.31
2022-10-18T02:34:18.343Z,100641.44
2022-10-18T02:37:06.564Z,100637.66
2022-10-18T02:39:55.975Z,100637.22
2022-10-18T02:42:47.880Z,100631.84
2022-10-18T02:45:36.016Z,100640.63
2022-10-18T02:48:23.908Z,100641.47
2022-10-18T02:51:11.824Z,100645.44
2022-10-18T02:53:59.718Z,100649.47
2022-10-18T02:56:48.953Z,100649.41
2022-10-18T02:59:36.794Z,100653.69
2022-10-18T03:02:24.773Z,100651.72
2022-10-18T03:05:12.692Z,100660.47
2022-10-18T03:08:00.584Z,100667.56
2022-10-18T03:10:48.489Z,100664.66
2022-10-18T03:13:37.714Z,100658.16
2022-10-18T03:16:25.617Z,100664.75
2022-10-18T03:19:13.524Z,100664.97
2022-10-18T03:22:01.406Z,100659.78
2022-10-18T03:24:49.323Z,100662.50
2022-10-18T03:27:37.211Z,100655.28
2022-10-18T03:30:26.689Z,100665.31
2022-10-18T03:33:14.609Z,100657.72
2022-10-18T03:36:02.502Z,100661.13
2022-10-18T03:38:50.440Z,100668.88
2022-10-18T03:41:38.304Z,100674.25
2022-10-18T03:44:26.210Z,100692.63
2022-10-18T03:47:15.618Z,100703.25
2022-10-18T03:50:03.705Z,100702.63
2022-10-18T03:52:51.686Z,100713.66
2022-10-18T03:55:39.986Z,100712.66
2022-10-18T03:58:27.962Z,100727.13
2022-10-18T04:01:15.997Z,100741.53
2022-10-18T04:04:05.551Z,100735.56
2022-10-18T04:06:53.478Z,100732.84
2022-10-18T04:09:41.402Z,100735.25
2022-10-18T04:12:29.584Z,100728.16
2022-10-18T04:15:17.895Z,100723.34
2022-10-18T04:18:05.863Z,100728.53
2022-10-18T04:20:55.100Z,100727.28
2022-10-18T04:23:43.073Z,100727.69
2022-10-18T04:26:30.954Z,100738.88
2022-10-18T04:29:18.977Z,100739.66
2022-10-18T04:32:07.149Z,100641.06
2022-10-18T04:34:55.001Z,100735.31
2022-10-18T04:37:44.243Z,100742.44
2022-10-18T04:40:32.273Z,100748.41
2022-10-18T04:43:20.225Z,100751.19
2022-10-18T04:46:08.156Z,100740.47
2022-10-18T04:48:56.071Z,100734.16
2022-10-18T04:51:44.025Z,100746.06
2022-10-18T04:54:33.294Z,100723.81
2022-10-18T04:57:21.194Z,100729.03
2022-10-18T05:00:09.596Z,100727.88
2022-10-18T05:02:57.846Z,100723.47
2022-10-18T05:06:03.092Z,100736.16
2022-10-18T05:08:51.524Z,100734.19
2022-10-18T05:11:40.796Z,100723.47
2022-10-18T05:14:28.767Z,100722.69
2022-10-18T05:17:16.665Z,100725.50
2022-10-18T05:20:05.269Z,100722.75
2022-10-18T05:22:53.188Z,100730.66
2022-10-18T05:25:41.329Z,100722.31
2022-10-18T05:28:46.223Z,100721.16
2022-10-18T05:31:34.175Z,100725.09
2022-10-18T05:34:22.267Z,100723.53
2022-10-18T05:37:10.262Z,100707.28
2022-10-18T05:39:58.156Z,100713.66
2022-10-18T05:42:46.048Z,100708.47
2022-10-18T05:45:35.249Z,100710.84
2022-10-18T05:48:23.221Z,100707.75
2022-10-18T05:51:11.106Z,100713.69
2022-10-18T05:53:59.140Z,100704.97
2022-10-18T05:56:46.998Z,100702.56
2022-10-18T05:59:34.942Z,100706.53
2022-10-18T06:02:24.234Z,100707.00
2022-10-18T06:04:51.915Z,100701.41
2022-10-18T06:07:19.533Z,100695.47
2022-10-18T06:09:47.130Z,100709.34
2022-10-18T06:12:14.684Z,100706.19
2022-10-18T06:14:44.428Z,100709.34
2022-10-18T06:17:12.174Z,100717.31
2022-10-18T06:19:43.325Z,100717.31
2022-10-18T06:22:11.075Z,100719.72
2022-10-18T06:24:38.695Z,100708.59
2022-10-18T06:27:08.964Z,100719.66
2022-10-18T06:29:36.721Z,100680.78
2022-10-18T06:32:04.875Z,100718.03
2022-10-18T06:34:32.819Z,100712.47
2022-10-18T06:37:01.827Z,100716.41
2022-10-18T06:39:30.207Z,100723.94
2022-10-18T06:41:57.905Z,100717.59
2022-10-18T06:44:25.777Z,100723.09
2022-10-18T06:46:53.786Z,100726.66
2022-10-18T06:49:21.367Z,100732.59
2022-10-18T06:51:48.990Z,100739.00
2022-10-18T06:54:18.914Z,100735.38
2022-10-18T06:56:46.832Z,100731.44
2022-10-18T06:59:14.928Z,100736.22
2022-10-18T07:01:43.471Z,100743.38
2022-10-18T07:04:11.237Z,100745.38
2022-10-18T07:06:38.924Z,100749.72
2022-10-18T07:09:06.580Z,100760.41
2022-10-18T07:11:35.938Z,100758.78
2022-10-18T07:14:04.884Z,100768.69
2022-10-18T07:16:33.509Z,100778.25
2022-10-18T07:19:01.150Z,100795.28
2022-10-18T07:21:29.064Z,100805.56
2022-10-18T07:23:57.467Z,100808.03
2022-10-18T07:26:27.134Z,100798.22
2022-10-18T07:28:59.074Z,100793.50
2022-10-18T07:31:27.592Z,100791.91
2022-10-18T07:33:55.534Z,100813.72
2022-10-18T07:36:24.423Z,100812.13
2022-10-18T07:38:53.090Z,100812.53
2022-10-18T07:41:21.278Z,100808.16
2022-10-18T07:43:50.740Z,100811.72
2022-10-18T07:46:21.063Z,100823.28
2022-10-18T07:48:49.548Z,100820.06
2022-10-18T07:51:17.933Z,100823.28
2022-10-18T07:53:45.903Z,100830.78
2022-10-18T07:56:16.762Z,100816.50
2022-10-18T07:58:45.171Z,100808.56
2022-10-18T08:01:13.874Z,100822.44
2022-10-18T08:03:43.281Z,100813.31
2022-10-18T08:06:12.685Z,100830.72
2022-10-18T08:08:41.749Z,100830.72
2022-10-18T08:11:12.259Z,100829.13
2022-10-18T08:13:40.133Z,100762.94
2022-10-18T08:16:09.710Z,100834.34
2022-10-18T08:18:37.902Z,100817.25
2022-10-18T08:21:09.458Z,100827.22
2022-10-18T08:23:37.330Z,100830.78
2022-10-18T08:26:06.894Z,100836.34
2022-10-18T08:28:36.669Z,100833.97
2022-10-18T08:31:05.267Z,100828.78
2022-10-18T08:33:33.894Z,100821.66
2022-10-18T08:36:05.651Z,100828.81
2022-10-18T08:38:36.561Z,100814.91
2022-10-18T08:41:22.459Z,100834.34
2022-10-18T08:43:57.275Z,100836.69
2022-10-18T08:46:26.128Z,100843.78
2022-10-18T08:48:57.476Z,100854.00
2022-10-18T08:51:31.130Z,100860.66
2022-10-18T08:54:05.870Z,100855.03
2022-10-18T08:56:34.745Z,100854.59
2022-10-18T08:59:03.179Z,100851.72
2022-10-18T09:01:42.998Z,100845.00
2022-10-18T09:04:27.001Z,100843.06
2022-10-18T09:07:06.836Z,100843.00
2022-10-18T09:09:44.558Z,100826.75
2022-10-18T09:12:42.683Z,100832.84
2022-10-18T09:15:17.460Z,100836.06
2022-10-18T09:18:08.342Z,100836.94
2022-10-18T09:20:43.496Z,100845.28
2022-10-18T09:23:19.544Z,100857.53
2022-10-18T09:25:50.557Z,100862.25
2022-10-18T09:28:33.269Z,100866.91
2022-10-18T09:31:08.189Z,100863.63
2022-10-18T09:33:44.775Z,100862.59
2022-10-18T09:36:18.359Z,100864.22
2022-10-18T09:38:49.299Z,100862.88
2022-10-18T09:41:23.901Z,100856.06
2022-10-18T09:43:56.538Z,100848.84
2022-10-18T09:46:27.733Z,100849.88
2022-10-18T09:49:00.172Z,100849.94
2022-10-18T09:51:34.573Z,100845.81
2022-10-18T09:54:16.862Z,100860.97
2022-10-18T09:56:50.834Z,100864.63
2022-10-18T09:59:38.419Z,100880.56
2022-10-18T10:02:07.394Z,100877.78
2022-10-18T10:04:35.049Z,100876.38
2022-10-18T10:07:03.413Z,100875.31
2022-10-18T10:09:32.610Z,100869.09
2022-10-18T10:12:02.486Z,100878.00
2022-10-18T10:14:31.067Z,100864.22
2022-10-18T10:17:02.150Z,100882.91
2022-10-18T10:19:32.689Z,100883.28
2022-10-18T10:22:03.694Z,100892.44
2022-10-18T10:24:40.634Z,100887.31
2022-10-18T10:27:19.133Z,100889.47
2022-10-18T10:29:55.853Z,100889.09
2022-10-18T10:34:59.145Z,100882.78
2022-10-18T10:37:38.533Z,100890.34
2022-10-18T10:40:18.775Z,100899.53
2022-10-18T10:43:13.021Z,100890.81
2022-10-18T10:46:13.158Z,100895.66
2022-10-18T10:48:47.595Z,100890.03
2022-10-18T10:51:18.105Z,100893.13
2022-10-18T10:53:52.020Z,100891.56
2022-10-18T10:56:24.958Z,100892.75
2022-10-18T10:58:55.723Z,100892.38
2022-10-18T11:01:32.388Z,100874.94
2022-10-18T11:04:02.722Z,100892.81
2022-10-18T11:06:45.558Z,100885.34
2022-10-18T11:09:25.418Z,100888.94
2022-10-18T11:12:02.461Z,100887.41
2022-10-18T11:14:37.628Z,100899.38
2022-10-18T11:17:13.727Z,100897.75
2022-10-18T11:19:50.846Z,100894.59
2022-10-18T11:22:22.998Z,100891.97
2022-10-18T11:24:50.649Z,100881.53
2022-10-18T11:27:26.137Z,100886.28
2022-10-18T11:30:13.595Z,100887.44
2022-10-18T11:32:49.621Z,100889.91
2022-10-18T11:35:31.403Z,100890.81
2022-10-18T11:38:08.430Z,100886.88
2022-10-18T11:40:50.523Z,100900.16
2022-10-18T11:43:30.126Z,100881.09
2022-10-18T11:46:12.584Z,100888.72
2022-10-18T11:49:02.304Z,100884.78
2022-10-18T11:52:03.225Z,100876.53
2022-10-18T11:54:44.462Z,100868.31
2022-10-18T11:57:31.199Z,100879.38
2022-10-18T12:00:09.610Z,100881.81
2022-10-18T12:03:04.784Z,100882.25
2022-10-18T12:05:36.179Z,100880.56
2022-10-18T12:08:08.435Z,100864.63
2022-10-18T12:10:52.521Z,100873.72
2022-10-18T12:13:34.905Z,100857.03
2022-10-18T12:16:04.881Z,100796.09
2022-10-18T12:18:36.269Z,100872.88
2022-10-18T12:21:07.046Z,100869.31
2022-10-18T12:23:40.021Z,100872.94
2022-10-18T12:26:10.839Z,100868.22
2022-10-18T12:28:50.180Z,100866.25
2022-10-18T12:31:24.197Z,100870.19
2022-10-18T12:33:58.044Z,100838.94
2022-10-18T12:36:42.464Z,100867.09
2022-10-18T12:39:33.325Z,100859.53
2022-10-18T12:42:19.784Z,100865.91
2022-10-18T12:44:48.425Z,100795.03
2022-10-18T12:47:23.780Z,100867.41
2022-10-18T12:49:59.980Z,100848.38
2022-10-18T12:52:29.739Z,100864.13
2022-10-18T12:55:28.250Z,100868.44
2022-10-18T12:58:21.683Z,100798.19
2022-10-18T13:00:54.350Z,100861.03
2022-10-18T13:03:52.240Z,100859.66
2022-10-18T13:06:22.225Z,100860.47
2022-10-18T13:09:09.848Z,100861.69
2022-10-18T13:11:37.608Z,100862.66
2022-10-18T13:14:26.835Z,100858.34
2022-10-18T13:17:04.171Z,100860.75
2022-10-18T13:19:40.149Z,100855.63
2022-10-18T13:22:23.789Z,100773.34
2022-10-18T13:25:04.185Z,100854.47
2022-10-18T13:27:45.562Z,100854.84
2022-10-18T13:30:39.166Z,100856.81
2022-10-18T13:33:24.976Z,100853.94
2022-10-18T13:35:56.061Z,100852.66
2022-10-18T13:38:39.965Z,100850.16
2022-10-18T13:41:10.103Z,100858.63
2022-10-18T13:43:57.855Z,100856.56
2022-10-18T13:46:46.406Z,100860.00
2022-10-18T13:49:28.793Z,100861.50
2022-10-18T13:52:06.129Z,100864.69
2022-10-18T13:54:54.942Z,100864.34
2022-10-18T13:57:43.988Z,100865.22
2022-10-18T14:00:31.946Z,100863.16
2022-10-18T14:03:44.034Z,100862.91
2022-10-18T14:06:10.196Z,100867.34
2022-10-18T14:08:42.743Z,100866.09
2022-10-18T14:11:24.791Z,100865.69
2022-10-18T14:13:58.428Z,100864.47
2022-10-18T14:16:36.168Z,100868.41
2022-10-18T14:19:14.712Z,100865.97
2022-10-18T14:21:51.676Z,100867.06
2022-10-18T14:24:23.334Z,100857.06
2022-10-18T14:27:19.501Z,100861.81
2022-10-18T14:29:47.932Z,100862.94
2022-10-18T14:32:25.908Z,100863.31
2022-10-18T14:34:58.206Z,100865.34
2022-10-18T14:37:37.864Z,100851.75
2022-10-18T14:40:06.425Z,100854.13
2022-10-18T14:42:35.423Z,100861.75
2022-10-18T14:45:03.210Z,100869.34
2022-10-18T14:47:33.694Z,100858.50
2022-10-18T14:50:01.570Z,100854.88
2022-10-18T14:52:35.422Z,100842.13
2022-10-18T14:55:24.588Z,100867.47
2022-10-18T14:57:53.742Z,100866.25
2022-10-18T15:02:51.215Z,100871.06
2022-10-18T15:05:21.299Z,100868.75
2022-10-18T15:07:49.796Z,100868.38
2022-10-18T15:10:19.941Z,100870.44
2022-10-18T15:13:08.813Z,100870.88
2022-10-18T15:15:38.460Z,100800.41
2022-10-18T15:18:07.212Z,100870.88
2022-10-18T15:20:39.425Z,100879.25
2022-10-18T15:23:23.955Z,100876.88
2022-10-18T15:25:53.472Z,100878.59
2022-10-18T15:28:30.282Z,100874.28
2022-10-18T15:31:01.796Z,100875.47
2022-10-18T15:48:30.840Z,100881.09
2022-10-18T15:51:01.830Z,100886.69
2022-10-18T15:53:42.904Z,100877.56
2022-10-18T15:56:26.640Z,100880.38
2022-10-18T15:58:56.761Z,100877.28
2022-10-18T16:01:30.079Z,100880.91
2022-10-18T16:03:59.811Z,100880.16
2022-10-18T16:06:27.520Z,100885.75
2022-10-18T16:08:55.553Z,100889.38
2022-10-18T16:11:24.715Z,100886.59
2022-10-18T16:13:56.428Z,100882.63
2022-10-18T16:16:29.070Z,100887.44
2022-10-18T16:18:57.461Z,100887.09
2022-10-18T16:21:29.011Z,100884.34
2022-10-18T16:23:57.010Z,100874.81
2022-10-18T16:26:25.835Z,100881.19
2022-10-18T16:28:54.593Z,100883.97
2022-10-18T16:31:23.950Z,100803.13
2022-10-18T16:33:55.326Z,100868.16
2022-10-18T16:36:25.130Z,100891.56
2022-10-18T16:38:54.914Z,100892.00
2022-10-18T16:41:23.024Z,100886.44
2022-10-18T16:43:51.612Z,100889.66
2022-10-18T16:46:21.326Z,100895.22
2022-10-18T16:48:50.781Z,100898.81
2022-10-18T16:51:18.706Z,100905.22
2022-10-18T16:53:46.730Z,100898.88
2022-10-18T16:56:18.765Z,100911.22
2022-10-18T16:58:46.893Z,100908.03
2022-10-18T17:01:16.418Z,100910.06
2022-10-18T17:03:44.547Z,100921.19
2022-10-18T17:06:16.647Z,100917.22
2022-10-18T17:08:44.280Z,100927.13
2022-10-18T17:11:13.230Z,100923.56
2022-10-18T17:13:42.618Z,100934.69
2022-10-18T17:16:22.295Z,100942.66
2022-10-18T17:18:50.099Z,100935.91
2022-10-18T17:21:17.653Z,100939.50
2022-10-18T17:23:45.232Z,100934.31
2022-10-18T17:26:28.447Z,100933.94
2022-10-18T17:29:01.281Z,100932.38
2022-10-18T17:31:29.321Z,100926.03
2022-10-18T17:33:58.477Z,100927.63
2022-10-18T17:36:26.571Z,100923.66
2022-10-18T17:38:55.416Z,100934.00
2022-10-18T17:41:23.281Z,100921.69
2022-10-18T17:43:51.066Z,100938.38
2022-10-18T17:46:20.177Z,100928.06
2022-10-18T17:48:48.043Z,100931.19
2022-10-18T17:51:17.649Z,100943.91
2022-10-18T17:53:45.868Z,100937.16
2022-10-18T17:56:14.888Z,100947.03
2022-10-18T17:58:43.595Z,100946.63
2022-10-18T18:01:13.051Z,100950.59
2022-10-18T18:03:42.546Z,100955.34
2022-10-18T18:06:16.096Z,100951.38
2022-10-18T18:08:44.050Z,100947.03
2022-10-18T18:11:11.880Z,100948.63
2022-10-18T18:13:39.480Z,100950.19
2022-10-18T18:16:12.375Z,100948.19
2022-10-18T18:18:42.228Z,100940.25
2022-10-18T18:21:09.904Z,100942.63
2022-10-18T18:23:37.555Z,100946.56
2022-10-18T18:26:05.681Z,100956.09
2022-10-18T18:28:33.426Z,100946.56
2022-10-18T18:31:01.123Z,100937.88
2022-10-18T18:33:28.768Z,100941.00
2022-10-18T18:35:58.985Z,100942.22
2022-10-18T18:38:27.079Z,100936.69
2022-10-18T18:41:04.440Z,100941.44
2022-10-18T18:43:32.218Z,100934.72
2022-10-18T18:45:59.964Z,100935.50
2022-10-18T18:48:28.319Z,100933.53
2022-10-18T18:50:56.226Z,100932.34
2022-10-18T18:53:28.608Z,100935.50
2022-10-18T18:56:02.603Z,100926.38
2022-10-18T18:58:30.330Z,100929.13
2022-10-18T19:00:58.150Z,100928.31
2022-10-18T19:03:25.893Z,100928.28
2022-10-18T19:06:03.260Z,100917.94
2022-10-18T19:08:32.464Z,100923.91
2022-10-18T19:11:00.070Z,100923.53
2022-10-18T19:13:28.124Z,100918.72
2022-10-18T19:16:11.522Z,100927.38
2022-10-18T19:18:39.172Z,100930.50
2022-10-18T19:21:07.064Z,100926.50
2022-10-18T19:23:36.036Z,100926.50
2022-10-18T19:26:11.199Z,100882.69
2022-10-18T19:28:39.271Z,100934.31
2022-10-18T19:31:07.530Z,100931.09
2022-10-18T19:33:47.937Z,100935.03
2022-10-18T19:36:16.424Z,100936.56
2022-10-18T19:38:45.489Z,100938.94
2022-10-18T19:41:13.499Z,100938.50
2022-10-18T19:43:41.386Z,100934.47
2022-10-18T19:46:08.961Z,100936.03
2022-10-18T19:48:36.562Z,100922.13
2022-10-18T19:51:07.118Z,100932.03
2022-10-18T19:53:37.028Z,100934.84
2022-10-18T19:56:08.158Z,100938.78
2022-10-18T19:58:35.800Z,100938.13
2022-10-18T20:01:03.958Z,100935.81
2022-10-18T20:03:52.370Z,100929.19
2022-10-18T20:06:40.704Z,100934.84
2022-10-18T20:09:28.596Z,100929.28
2022-10-18T20:12:17.840Z,100939.25
2022-10-18T20:15:08.737Z,100937.72
2022-10-18T20:17:57.460Z,100938.91
2022-10-18T20:20:48.024Z,100924.16
2022-10-18T20:23:37.150Z,100938.94
2022-10-18T20:26:26.129Z,100941.72
2022-10-18T20:29:15.476Z,100934.59
2022-10-18T20:32:03.431Z,100931.06
2022-10-18T20:34:51.616Z,100928.69
2022-10-18T20:37:39.559Z,100934.66
2022-10-18T20:40:27.478Z,100937.41
2022-10-18T20:43:15.362Z,100933.00
2022-10-18T20:46:05.316Z,100933.41
2022-10-18T20:48:54.534Z,100925.88
2022-10-18T20:51:42.790Z,100923.88
2022-10-18T20:54:30.734Z,100930.19
2022-10-18T20:57:18.780Z,100920.69
2022-10-18T21:00:09.972Z,100928.59
2022-10-18T21:03:00.053Z,100923.75
2022-10-18T21:05:47.992Z,100925.75
2022-10-18T21:08:35.892Z,100913.78
2022-10-18T21:11:24.330Z,100913.72
2022-10-18T21:14:13.633Z,100911.25
2022-10-18T21:17:01.530Z,100927.84
2022-10-18T21:19:50.782Z,100913.13
2022-10-18T21:22:38.633Z,100917.06
2022-10-18T21:25:26.536Z,100921.41
2022-10-18T21:28:14.705Z,100917.41
2022-10-18T21:31:10.689Z,100902.66
2022-10-18T21:34:01.502Z,100902.31
2022-10-18T21:36:50.751Z,100909.78
2022-10-18T21:39:38.642Z,100906.19
2022-10-18T21:42:26.952Z,100906.13
2022-10-18T21:45:14.964Z,100900.97
2022-10-18T21:48:03.866Z,100871.81
2022-10-18T21:50:51.812Z,100897.22
2022-10-18T21:53:43.903Z,100896.38
2022-10-18T21:56:34.267Z,100897.97
2022-10-18T21:59:22.714Z,100891.63
2022-10-18T22:02:10.565Z,100892.31
2022-10-18T22:04:58.514Z,100881.19
2022-10-18T22:07:46.351Z,100879.16
2022-10-18T22:10:35.584Z,100888.59
2022-10-18T22:13:24.399Z,100860.75
2022-10-18T22:16:15.163Z,100877.75
2022-10-18T22:19:05.253Z,100879.25
2022-10-18T22:21:53.338Z,100886.25
2022-10-18T22:24:41.169Z,100882.31
2022-10-18T22:27:31.997Z,100887.84
2022-10-18T22:30:20.116Z,100874.00
2022-10-18T22:33:08.013Z,100884.66
2022-10-18T22:35:55.965Z,100886.66
2022-10-18T22:38:43.898Z,100884.69
2022-10-18T22:41:32.561Z,100886.66
2022-10-18T22:44:21.785Z,100886.19
2022-10-18T22:47:09.652Z,100878.19
2022-10-18T22:49:57.552Z,100883.28
2022-10-18T22:52:45.428Z,100876.97
2022-10-18T22:55:33.268Z,100876.56
2022-10-18T22:58:21.924Z,100882.44
2022-10-18T23:01:13.107Z,100886.81
2022-10-18T23:04:01.583Z,100889.22
2022-10-18T23:06:49.412Z,100885.69
2022-10-18T23:09:37.316Z,100890.09
2022-10-18T23:12:25.468Z,100888.16
2022-10-18T23:15:13.360Z,100894.13
2022-10-18T23:18:03.032Z,100898.91
2022-10-18T23:20:50.894Z,100893.28
2022-10-18T23:23:41.093Z,100900.84
2022-10-18T23:26:29.288Z,100899.22
2022-10-18T23:29:17.644Z,100888.81
2022-10-18T23:32:06.209Z,100894.75
2022-10-18T23:34:55.462Z,100899.16
2022-10-18T23:37:43.347Z,100897.84
2022-10-18T23:40:31.235Z,100897.69
2022-10-18T23:43:19.155Z,100909.53
2022-10-18T23:46:07.371Z,100839.59
2022-10-18T23:48:55.408Z,100896.00
2022-10-18T23:51:44.601Z,100894.38
2022-10-18T23:54:32.540Z,100898.28
2022-10-18T23:57:20.471Z,100900.25
